Estación Meteorológica Peña el Pijo (Robertgarden) [ 05/28/18 11:33:35 CEST ]

Fecha Hora Presion(HPa) Temp (°C) Humedad % Rocio (°C) Viento ( m/s) Direccion Lluvia 1Hora(mm) Lluvia 24H(mm) LLuvia Total(mm)
2018-Jan-29 01:01:51 1021.300 4.3 85 2.0       0.51 62.67
2018-Jan-29 02:03:06 1020.900 4.1 86 1.9       0.51 62.67
2018-Jan-29 03:01:58 1020.700 4.6 88 2.8 2.5 ENE   0.51 62.67
2018-Jan-29 04:01:42 1020.500 5.1 86 2.9       0.51 62.67
2018-Jan-29 05:01:52 1020.500 4.5 84 2.0       0.51 62.67
2018-Jan-29 06:01:51 1020.700 3.1 84 0.6       0.51 62.67
2018-Jan-29 07:01:55 1021.100 2.4 85 0.1       0.51 62.67
2018-Jan-29 08:01:48 1021.500 1.9 86 -0.2       0.51 62.67
2018-Jan-29 09:01:48 1022.100 1.6 87 -0.4       0.51 62.67
2018-Jan-29 10:01:51 1022.200 3.1 88 1.3       0.51 62.67
2018-Jan-29 11:01:55 1021.700 4.9 88 3.1         62.67
2018-Jan-29 12:01:47 1021.700 9.0 80 5.7         62.67
2018-Jan-29 13:01:37 1020.900 8.3 71 3.4         62.67
2018-Jan-29 14:01:49 1019.900 11.2 65 4.8         62.67
2018-Jan-29 15:01:52 1019.300 11.1 58 3.1         62.67
2018-Jan-29 16:01:46 1018.900 11.2 58 3.2         62.67
2018-Jan-29 17:01:45 1018.900 8.7 62 1.8         62.67
2018-Jan-29 18:01:56 1018.800 7.0 67 1.5         62.67
2018-Jan-29 19:01:39 1018.900 6.0 71 1.2         62.67
2018-Jan-29 20:01:38 1019.100 5.3 74 1.0         62.67
2018-Jan-29 21:01:41 1018.800 3.1 76 -0.7         62.67
2018-Jan-29 22:01:49 1019.200 1.8 79 -1.5         62.67
2018-Jan-29 23:01:35 1019.300 1.1 81 -1.8         62.67

Temperatura Máxima:11°    Temperatura Mínima:
Presión Máxima:1022.200 Hpa    Presión Mínima:1018.800 Hpa


Volver